createdAt,value
2018-11-20T00:00:43.381Z,8.7
2018-11-20T00:01:44.553Z,8.9
2018-11-20T00:02:45.694Z,9
2018-11-20T00:03:46.920Z,8.8
2018-11-20T00:04:48.034Z,8.5
2018-11-20T00:05:49.202Z,8.8
2018-11-20T00:06:50.451Z,8.7
2018-11-20T00:07:51.599Z,8.5
2018-11-20T00:08:52.740Z,8.4
2018-11-20T00:09:54.126Z,8.4
2018-11-20T00:10:55.281Z,8.7
2018-11-20T00:11:56.450Z,8.5
2018-11-20T00:12:58.331Z,8.4
2018-11-20T00:13:59.484Z,8.6
2018-11-20T00:15:00.625Z,8.6
2018-11-20T00:16:01.768Z,8.5
2018-11-20T00:17:02.973Z,8.7
2018-11-20T00:18:04.121Z,8.7
2018-11-20T00:19:05.279Z,8.5
2018-11-20T00:20:06.476Z,8.4
2018-11-20T00:21:07.630Z,8.3
2018-11-20T00:22:08.839Z,8.4
2018-11-20T00:23:10.531Z,8.5
2018-11-20T00:24:12.715Z,8.3
2018-11-20T00:25:13.888Z,8.4
2018-11-20T00:26:15.385Z,8.4
2018-11-20T00:27:16.561Z,8.2
2018-11-20T00:28:17.699Z,8.3
2018-11-20T00:29:18.853Z,8.4
2018-11-20T00:30:19.979Z,8.6
2018-11-20T00:31:21.100Z,8.9
2018-11-20T00:32:22.291Z,9
2018-11-20T00:33:23.443Z,9.3
2018-11-20T00:34:24.757Z,9.3
2018-11-20T00:35:25.916Z,9.4
2018-11-20T00:36:27.063Z,9.4
2018-11-20T00:37:34.113Z,9.4
2018-11-20T00:38:35.238Z,9.5
2018-11-20T00:39:36.389Z,9.5
2018-11-20T00:40:38.861Z,9.6
2018-11-20T00:41:40.013Z,9.6
2018-11-20T00:42:42.442Z,9.4
2018-11-20T00:43:44.270Z,9.6
2018-11-20T00:44:45.409Z,9.6
2018-11-20T00:45:46.526Z,9.6
2018-11-20T00:46:47.686Z,9.6
2018-11-20T00:47:48.889Z,9.6
2018-11-20T00:48:50.049Z,9.6
2018-11-20T00:49:51.182Z,9.7
2018-11-20T00:50:52.341Z,9.7
2018-11-20T00:51:53.501Z,9.5
2018-11-20T00:52:54.654Z,9.6
2018-11-20T00:53:55.796Z,9.8
2018-11-20T00:54:56.922Z,9.8
2018-11-20T00:55:58.062Z,9.7
2018-11-20T00:56:59.240Z,9.7
2018-11-20T00:58:00.416Z,9.6
2018-11-20T00:59:01.566Z,9.6
2018-11-20T01:00:02.699Z,9.6
2018-11-20T01:01:03.901Z,9.6
2018-11-20T01:02:05.024Z,9.6
2018-11-20T01:03:06.198Z,9.5
2018-11-20T01:04:07.658Z,9.6
2018-11-20T01:05:08.802Z,9.6
2018-11-20T01:06:09.944Z,9.6
2018-11-20T01:07:11.081Z,9.5
2018-11-20T01:08:14.084Z,9.5
2018-11-20T01:09:16.454Z,9.5
2018-11-20T01:10:17.594Z,9.5
2018-11-20T01:11:18.748Z,9.5
2018-11-20T01:12:19.887Z,9.5
2018-11-20T01:13:21.056Z,9.5
2018-11-20T01:14:22.181Z,9.6
2018-11-20T01:15:23.535Z,9.5
2018-11-20T01:16:24.702Z,9.5
2018-11-20T01:17:25.837Z,9.4
2018-11-20T01:18:26.999Z,9.4
2018-11-20T01:19:28.137Z,9.6
2018-11-20T01:20:29.274Z,9.6
2018-11-20T01:21:30.451Z,9.6
2018-11-20T01:22:31.587Z,9.4
2018-11-20T01:23:33.023Z,9.4
2018-11-20T01:24:34.169Z,9.4
2018-11-20T01:25:35.306Z,9.4
2018-11-20T01:26:36.442Z,9.5
2018-11-20T01:27:37.591Z,9.5
2018-11-20T01:28:38.781Z,9.5
2018-11-20T01:29:39.922Z,9.5
2018-11-20T01:30:41.084Z,9.5
2018-11-20T01:31:42.223Z,9.5
2018-11-20T01:32:43.364Z,9.4
2018-11-20T01:33:44.558Z,9.6
2018-11-20T01:34:45.722Z,9.6
2018-11-20T01:35:46.842Z,9.6
2018-11-20T01:36:47.975Z,9.5
2018-11-20T01:37:49.130Z,9.6
2018-11-20T01:38:50.323Z,9.5
2018-11-20T01:39:51.500Z,9.4
2018-11-20T01:40:52.662Z,9.5
2018-11-20T01:41:53.831Z,9.5
2018-11-20T01:42:54.995Z,9.4
2018-11-20T01:43:56.181Z,9.3
2018-11-20T01:44:57.340Z,9.4
2018-11-20T01:45:58.466Z,9.3
2018-11-20T01:46:59.629Z,9.4
2018-11-20T01:48:02.681Z,9.4
2018-11-20T01:49:03.865Z,9.4
2018-11-20T01:50:05.010Z,9.4
2018-11-20T01:51:06.190Z,9.4
2018-11-20T01:52:07.314Z,9.3
2018-11-20T01:53:08.469Z,9.4
2018-11-20T01:54:09.663Z,9.4
2018-11-20T01:55:10.802Z,9.3
2018-11-20T01:56:13.049Z,9.3
2018-11-20T01:57:14.254Z,9.3
2018-11-20T01:58:15.386Z,9.3
2018-11-20T01:59:16.582Z,9.4
2018-11-20T02:00:17.717Z,9.3
2018-11-20T02:01:18.850Z,9.4
2018-11-20T02:02:19.991Z,9.6
2018-11-20T02:03:21.127Z,9.4
2018-11-20T02:04:22.305Z,9.4
2018-11-20T02:05:23.439Z,9.2
2018-11-20T02:06:27.650Z,9.2
2018-11-20T02:07:28.805Z,9.3
2018-11-20T02:08:29.931Z,9.3
2018-11-20T02:09:31.138Z,9.3
2018-11-20T02:10:32.274Z,9.3
2018-11-20T02:11:33.746Z,9.2
2018-11-20T02:12:35.928Z,9.1
2018-11-20T02:13:37.055Z,9.2
2018-11-20T02:14:38.216Z,9.3
2018-11-20T02:15:39.358Z,9.3
2018-11-20T02:16:40.482Z,9.2
2018-11-20T02:17:41.613Z,9.2
2018-11-20T02:18:57.229Z,9.1
2018-11-20T02:19:58.397Z,9.1
2018-11-20T02:20:59.517Z,9
2018-11-20T02:22:00.664Z,9
2018-11-20T02:23:01.792Z,9.1
2018-11-20T02:24:02.932Z,9.1
2018-11-20T02:25:04.118Z,9.1
2018-11-20T02:26:05.269Z,9.1
2018-11-20T02:27:06.417Z,9.1
2018-11-20T02:28:07.561Z,9
2018-11-20T02:29:08.703Z,8.9
2018-11-20T02:30:09.866Z,9.1
2018-11-20T02:31:11.011Z,9
2018-11-20T02:32:12.197Z,9.2
2018-11-20T02:33:13.341Z,9.1
2018-11-20T02:34:14.484Z,9.1
2018-11-20T02:35:15.653Z,9.1
2018-11-20T02:36:16.787Z,9.1
2018-11-20T02:37:17.932Z,9.1
2018-11-20T02:38:19.058Z,9
2018-11-20T02:39:20.209Z,9
2018-11-20T02:40:21.405Z,8.9
2018-11-20T02:41:22.736Z,9
2018-11-20T02:42:24.033Z,9.1
2018-11-20T02:43:25.203Z,9
2018-11-20T02:44:26.377Z,9.1
2018-11-20T02:45:27.549Z,9
2018-11-20T02:46:28.706Z,9.1
2018-11-20T02:47:29.844Z,9.3
2018-11-20T02:48:30.982Z,9.2
2018-11-20T02:49:32.121Z,9.1
2018-11-20T02:50:33.277Z,9.2
2018-11-20T02:51:34.449Z,9
2018-11-20T02:52:35.569Z,9.1
2018-11-20T02:53:37.738Z,9.1
2018-11-20T02:54:38.900Z,9.2
2018-11-20T02:55:40.257Z,9.1
2018-11-20T02:56:41.709Z,9.1
2018-11-20T02:57:42.878Z,9.1
2018-11-20T02:58:44.046Z,9.2
2018-11-20T02:59:45.177Z,9.2
2018-11-20T03:00:46.374Z,9.1
2018-11-20T03:01:47.508Z,9.2
2018-11-20T03:02:48.722Z,9.2
2018-11-20T03:03:50.101Z,9
2018-11-20T03:04:51.393Z,9.1
2018-11-20T03:05:52.600Z,9.1
2018-11-20T03:06:53.963Z,9.3
2018-11-20T03:07:55.839Z,9.2
2018-11-20T03:08:57.432Z,9.1
2018-11-20T03:09:58.720Z,8.9
2018-11-20T03:10:59.916Z,9.2
2018-11-20T03:12:01.057Z,9.3
2018-11-20T03:13:02.183Z,9.2
2018-11-20T03:14:03.326Z,9.1
2018-11-20T03:15:04.465Z,9.1
2018-11-20T03:16:05.616Z,9.1
2018-11-20T03:17:06.822Z,9.3
2018-11-20T03:18:07.998Z,9.1
2018-11-20T03:19:09.159Z,9.1
2018-11-20T03:20:10.317Z,9.1
2018-11-20T03:21:11.528Z,9
2018-11-20T03:22:12.726Z,9.1
2018-11-20T03:23:13.886Z,9.1
2018-11-20T03:24:15.051Z,9
2018-11-20T03:25:16.196Z,9.1
2018-11-20T03:26:17.347Z,9.1
2018-11-20T03:27:18.488Z,9.1
2018-11-20T03:28:19.654Z,9
2018-11-20T03:29:20.786Z,8.9
2018-11-20T03:30:21.914Z,9
2018-11-20T03:31:23.090Z,9.1
2018-11-20T03:32:26.433Z,8.9
2018-11-20T03:33:27.594Z,9
2018-11-20T03:34:28.751Z,9.1
2018-11-20T03:35:29.898Z,9
2018-11-20T03:36:31.089Z,8.8
2018-11-20T03:37:32.999Z,9
2018-11-20T03:38:34.147Z,9.1
2018-11-20T03:39:35.302Z,9
2018-11-20T03:40:36.425Z,8.9
2018-11-20T03:41:37.607Z,8.9
2018-11-20T03:42:38.773Z,8.9
2018-11-20T03:43:40.130Z,8.8
2018-11-20T03:44:41.374Z,8.8
2018-11-20T03:45:42.758Z,8.8
2018-11-20T03:46:43.933Z,8.9
2018-11-20T03:47:45.116Z,8.7
2018-11-20T03:48:47.032Z,8.8
2018-11-20T03:49:48.576Z,8.8
2018-11-20T03:50:49.783Z,8.9
2018-11-20T03:51:50.986Z,8.9
2018-11-20T03:52:54.993Z,8.9
2018-11-20T03:53:56.148Z,8.8
2018-11-20T03:54:57.289Z,8.7
2018-11-20T03:55:58.428Z,8.8
2018-11-20T03:57:00.740Z,8.9
2018-11-20T03:58:02.015Z,8.8
2018-11-20T03:59:03.226Z,8.7
2018-11-20T04:00:04.451Z,8.5
2018-11-20T04:01:05.887Z,8.8
2018-11-20T04:02:16.514Z,8.8
2018-11-20T04:03:17.658Z,8.8
2018-11-20T04:04:18.808Z,8.8
2018-11-20T04:05:20.224Z,8.8
2018-11-20T04:06:24.414Z,8.8
2018-11-20T04:07:25.601Z,8.8
2018-11-20T04:08:26.730Z,8.7
2018-11-20T04:09:28.707Z,8.6
2018-11-20T04:10:29.848Z,8.7
2018-11-20T04:11:31.188Z,8.8
2018-11-20T04:12:32.469Z,8.7
2018-11-20T04:13:33.690Z,8.7
2018-11-20T04:14:34.853Z,8.8
2018-11-20T04:15:36.042Z,8.7
2018-11-20T04:16:37.238Z,8.9
2018-11-20T04:17:38.475Z,8.8
2018-11-20T04:18:39.583Z,8.7
2018-11-20T04:19:40.746Z,8.7
2018-11-20T04:20:41.951Z,8.7
2018-11-20T04:21:43.092Z,8.7
2018-11-20T04:22:44.604Z,8.6
2018-11-20T04:23:45.758Z,8.8
2018-11-20T04:24:46.909Z,8.6
2018-11-20T04:25:48.038Z,8.6
2018-11-20T04:26:51.628Z,8.6
2018-11-20T04:27:52.951Z,8.6
2018-11-20T04:28:54.290Z,8.6
2018-11-20T04:29:55.434Z,8.7
2018-11-20T04:30:56.591Z,8.6
2018-11-20T04:31:57.757Z,8.6
2018-11-20T04:32:58.958Z,8.6
2018-11-20T04:34:00.291Z,8.5
2018-11-20T04:35:01.433Z,8.5
2018-11-20T04:36:02.606Z,8.6
2018-11-20T04:37:03.738Z,8.6
2018-11-20T04:38:04.952Z,8.6
2018-11-20T04:39:06.107Z,8.7
2018-11-20T04:40:07.265Z,8.7
2018-11-20T04:41:08.564Z,8.6
2018-11-20T04:42:09.678Z,8.6
2018-11-20T04:43:10.906Z,8.6
2018-11-20T04:44:12.047Z,8.5
2018-11-20T04:45:13.186Z,8.6
2018-11-20T04:46:14.312Z,8.5
2018-11-20T04:47:15.454Z,8.5
2018-11-20T04:48:16.611Z,8.5
2018-11-20T04:49:17.762Z,8.5
2018-11-20T04:50:24.319Z,8.2
2018-11-20T04:51:27.599Z,8.4
2018-11-20T04:52:28.751Z,8.5
2018-11-20T04:53:29.923Z,8.5
2018-11-20T04:54:31.082Z,8.4
2018-11-20T04:55:32.234Z,8.5
2018-11-20T04:56:33.389Z,8.5
2018-11-20T04:57:34.813Z,8.5
2018-11-20T04:58:35.958Z,8.5
2018-11-20T04:59:37.111Z,8.4
2018-11-20T05:00:38.268Z,8.4
2018-11-20T05:01:39.410Z,8.2
2018-11-20T05:02:40.597Z,8.5
2018-11-20T05:03:41.831Z,8.4
2018-11-20T05:04:42.970Z,8.3
2018-11-20T05:05:44.123Z,8.4
2018-11-20T05:06:45.302Z,8.4
2018-11-20T05:07:46.736Z,8.5
2018-11-20T05:08:47.903Z,8.6
2018-11-20T05:09:49.042Z,8.6
2018-11-20T05:10:50.202Z,8.6
2018-11-20T05:11:51.641Z,8.2
2018-11-20T05:12:52.773Z,8.4
2018-11-20T05:13:54.229Z,8.6
2018-11-20T05:14:55.395Z,8.6
2018-11-20T05:15:56.538Z,8.5
2018-11-20T05:16:57.686Z,8.5
2018-11-20T05:17:59.086Z,8.5
2018-11-20T05:19:06.688Z,8.5
2018-11-20T05:20:07.843Z,8.6
2018-11-20T05:21:08.994Z,8.5
2018-11-20T05:22:10.138Z,8.5
2018-11-20T05:23:13.931Z,8.4
2018-11-20T05:24:16.673Z,8.5
2018-11-20T05:25:17.807Z,8.5
2018-11-20T05:26:21.312Z,8.5
2018-11-20T05:27:25.146Z,8.4
2018-11-20T05:28:26.295Z,8.3
2018-11-20T05:29:27.498Z,8.4
2018-11-20T05:30:28.662Z,8.5
2018-11-20T05:31:29.817Z,8.3
2018-11-20T05:32:30.954Z,8.5
2018-11-20T05:33:32.205Z,8.4
2018-11-20T05:34:33.379Z,8.3
2018-11-20T05:35:35.316Z,8.3
2018-11-20T05:36:36.483Z,8.3
2018-11-20T05:37:37.617Z,8.3
2018-11-20T05:38:38.757Z,8.3
2018-11-20T05:39:39.947Z,8.3
2018-11-20T05:40:41.099Z,8.4
2018-11-20T05:41:42.283Z,8.5
2018-11-20T05:42:43.430Z,8.4
2018-11-20T05:43:45.575Z,8.4
2018-11-20T05:44:47.134Z,8.4
2018-11-20T05:45:48.314Z,8.3
2018-11-20T05:46:49.545Z,8.3
2018-11-20T05:47:50.621Z,8.4
2018-11-20T05:48:51.782Z,8.3
2018-11-20T05:49:52.974Z,8.3
2018-11-20T05:50:54.119Z,8.3
2018-11-20T05:51:55.309Z,8.4
2018-11-20T05:52:56.418Z,8.4
2018-11-20T05:53:57.572Z,8.3
2018-11-20T05:55:02.398Z,8.3
2018-11-20T05:56:03.634Z,8.4
2018-11-20T05:57:04.809Z,8.3
2018-11-20T05:58:06.064Z,8.3
2018-11-20T05:59:07.162Z,8.2
2018-11-20T06:00:08.368Z,8.3
2018-11-20T06:01:09.578Z,8.3
2018-11-20T06:02:10.733Z,8.4
2018-11-20T06:03:11.896Z,8.3
2018-11-20T06:04:13.097Z,8.3
2018-11-20T06:05:14.611Z,8.3
2018-11-20T06:06:15.832Z,8.2
2018-11-20T06:07:22.330Z,8.3
2018-11-20T06:08:23.534Z,8.3
2018-11-20T06:09:24.749Z,8.3
2018-11-20T06:10:25.974Z,8.3
2018-11-20T06:11:27.130Z,8.4
2018-11-20T06:12:29.413Z,8.4
2018-11-20T06:13:30.781Z,8.5
2018-11-20T06:14:31.983Z,8.7
2018-11-20T06:15:33.239Z,9.3
2018-11-20T06:16:34.609Z,9.8
2018-11-20T06:17:35.829Z,10.3
2018-11-20T06:18:40.188Z,10.4
2018-11-20T06:19:41.382Z,10.6
2018-11-20T06:20:42.620Z,10.7
2018-11-20T06:21:43.835Z,10.7
2018-11-20T06:22:45.028Z,10.8
2018-11-20T06:23:46.202Z,10.8
2018-11-20T06:24:47.336Z,10.8
2018-11-20T06:25:48.560Z,10.9
2018-11-20T06:26:49.716Z,11.1
2018-11-20T06:27:54.132Z,11
2018-11-20T06:28:55.530Z,11.1
2018-11-20T06:29:56.563Z,11.2
2018-11-20T06:30:57.798Z,11.4
2018-11-20T06:31:58.979Z,11.3
2018-11-20T06:33:00.184Z,11.3
2018-11-20T06:34:01.386Z,11.2
2018-11-20T06:35:02.679Z,11.2
2018-11-20T06:36:04.084Z,11.3
2018-11-20T06:37:05.393Z,11.1
2018-11-20T06:38:06.566Z,11.3
2018-11-20T06:39:07.770Z,11.4
2018-11-20T06:40:09.119Z,11.4
2018-11-20T06:41:13.187Z,11.4
2018-11-20T06:42:14.329Z,11.6
2018-11-20T06:43:15.535Z,11.8
2018-11-20T06:44:16.779Z,11.7
2018-11-20T06:45:21.897Z,11.5
2018-11-20T06:46:23.575Z,11.6
2018-11-20T06:47:27.650Z,11.5
2018-11-20T06:48:28.879Z,11.2
2018-11-20T06:49:30.032Z,11
2018-11-20T06:50:31.237Z,11.1
2018-11-20T06:51:32.480Z,11.1
2018-11-20T06:52:33.635Z,11.3
2018-11-20T06:53:35.245Z,11.3
2018-11-20T06:54:36.590Z,11.3
2018-11-20T06:55:37.765Z,11.6
2018-11-20T06:56:38.978Z,11.6
2018-11-20T06:57:40.238Z,11.9
2018-11-20T06:58:41.413Z,11.9
2018-11-20T06:59:42.636Z,11.9
2018-11-20T07:00:46.305Z,11.8
2018-11-20T07:01:49.728Z,11.8
2018-11-20T07:02:50.888Z,12
2018-11-20T07:03:52.072Z,11.9
2018-11-20T07:04:57.271Z,12.1
2018-11-20T07:05:58.446Z,12.2
2018-11-20T07:06:59.994Z,12.1
2018-11-20T07:08:01.395Z,12.3
2018-11-20T07:09:02.680Z,12.3
2018-11-20T07:10:03.851Z,12.2
2018-11-20T07:11:05.037Z,12.4
2018-11-20T07:12:06.264Z,12.5
2018-11-20T07:13:07.424Z,12.8
2018-11-20T07:14:19.088Z,13.1
2018-11-20T07:15:21.680Z,13.2
2018-11-20T07:16:22.869Z,13.2
2018-11-20T07:17:24.614Z,13
2018-11-20T07:18:25.890Z,13
2018-11-20T07:19:27.055Z,13.3
2018-11-20T07:20:28.200Z,13.5
2018-11-20T07:21:29.373Z,13.7
2018-11-20T07:22:30.633Z,13.9
2018-11-20T07:23:34.118Z,13.8
2018-11-20T07:24:35.324Z,13.9
2018-11-20T07:25:36.669Z,13.6
2018-11-20T07:26:37.871Z,13.7
2018-11-20T07:27:41.285Z,13.6
2018-11-20T07:28:42.471Z,13.5
2018-11-20T07:29:46.606Z,13.8
2018-11-20T07:30:47.808Z,14.3
2018-11-20T07:31:48.916Z,14.4
2018-11-20T07:32:50.250Z,13.9
2018-11-20T07:33:54.432Z,13.8
2018-11-20T07:34:55.615Z,14.4
2018-11-20T07:35:59.309Z,14.7
2018-11-20T07:37:07.152Z,14.7
2018-11-20T07:38:08.344Z,14.7
2018-11-20T07:39:09.520Z,14.7
2018-11-20T07:40:10.669Z,14.9
2018-11-20T07:41:11.830Z,14.5
2018-11-20T07:42:13.043Z,13.8
2018-11-20T07:43:14.315Z,14.3
2018-11-20T07:44:15.708Z,14.6
2018-11-20T07:45:16.885Z,14.4
2018-11-20T07:46:18.035Z,14
2018-11-20T07:47:19.290Z,14.2
2018-11-20T07:48:20.544Z,14.4
2018-11-20T07:49:21.760Z,14.5
2018-11-20T07:50:22.951Z,14.3
2018-11-20T07:51:27.555Z,14.2
2018-11-20T07:52:29.146Z,14.2
2018-11-20T07:53:32.480Z,14.4
2018-11-20T07:54:36.114Z,14.3
2018-11-20T07:55:37.414Z,14.2
2018-11-20T07:56:38.819Z,14
2018-11-20T07:57:40.362Z,13.8
2018-11-20T07:58:41.787Z,13.8
2018-11-20T07:59:43.073Z,13.7
2018-11-20T08:00:44.313Z,13.5
2018-11-20T08:01:45.525Z,13.5
2018-11-20T08:02:46.736Z,13.2
2018-11-20T08:03:48.042Z,13.2
2018-11-20T08:04:51.522Z,13.2
2018-11-20T08:05:53.537Z,13.2
2018-11-20T08:06:54.710Z,13.3
2018-11-20T08:07:55.902Z,13.3
2018-11-20T08:08:57.138Z,13.3
2018-11-20T08:09:58.560Z,13.4
2018-11-20T08:10:59.741Z,13.4
2018-11-20T08:12:02.686Z,13.2
2018-11-20T08:13:03.846Z,13.2
2018-11-20T08:14:05.118Z,13.3
2018-11-20T08:15:06.348Z,13.1
2018-11-20T08:16:07.732Z,13
2018-11-20T08:17:08.831Z,12.8
2018-11-20T08:18:10.178Z,12.7
2018-11-20T08:19:11.391Z,12.9
2018-11-20T08:20:12.599Z,13
2018-11-20T08:21:18.024Z,13
2018-11-20T08:22:20.018Z,12.9
2018-11-20T08:23:21.223Z,13.1
2018-11-20T08:24:23.199Z,12.9
2018-11-20T08:25:24.502Z,12.6
2018-11-20T08:26:28.634Z,12.9
2018-11-20T08:27:29.654Z,12.8
2018-11-20T08:28:30.873Z,12.9
2018-11-20T08:29:32.292Z,13.1
2018-11-20T08:30:36.860Z,13.1
2018-11-20T08:31:38.039Z,13
2018-11-20T08:32:39.284Z,13
2018-11-20T08:33:40.472Z,13.3
2018-11-20T08:34:41.749Z,13.2
2018-11-20T08:35:45.635Z,13.2
2018-11-20T08:36:47.097Z,13.3
2018-11-20T08:37:48.311Z,13.2
2018-11-20T08:38:53.266Z,13.1
2018-11-20T08:39:55.414Z,13.2
2018-11-20T08:41:02.786Z,13.3
2018-11-20T08:42:05.644Z,13.3
2018-11-20T08:43:11.632Z,13.3
2018-11-20T08:44:12.891Z,13.2
2018-11-20T08:45:14.053Z,13.1
2018-11-20T08:46:15.322Z,12.9
2018-11-20T08:47:16.492Z,13
2018-11-20T08:48:17.850Z,13.1
2018-11-20T08:49:19.143Z,13.2
2018-11-20T08:50:20.396Z,13.1
2018-11-20T08:51:21.616Z,13.1
2018-11-20T08:52:22.842Z,13.3
2018-11-20T08:53:27.386Z,13.3
2018-11-20T08:54:28.630Z,13.1
2018-11-20T08:55:29.838Z,12.9
2018-11-20T08:56:31.309Z,13.1
2018-11-20T08:57:32.683Z,13.1
2018-11-20T08:58:33.916Z,13
2018-11-20T08:59:38.581Z,13
2018-11-20T09:00:42.676Z,12.9
2018-11-20T09:01:43.902Z,12.8
2018-11-20T09:02:45.178Z,13
2018-11-20T09:03:46.295Z,13.2
2018-11-20T09:04:47.718Z,13.4
2018-11-20T09:05:48.951Z,13.7
2018-11-20T09:06:50.314Z,13.8
2018-11-20T09:07:51.618Z,14.2
2018-11-20T09:08:57.580Z,14
2018-11-20T09:09:58.883Z,13.8
2018-11-20T09:11:00.346Z,13.9
2018-11-20T09:12:03.059Z,13.9
2018-11-20T09:13:05.887Z,14
2018-11-20T09:14:07.143Z,14.2
2018-11-20T09:15:08.322Z,14.2
2018-11-20T09:16:09.713Z,13.9
2018-11-20T09:17:11.144Z,13.6
2018-11-20T09:18:12.412Z,13.6
2018-11-20T09:19:13.903Z,13.9
2018-11-20T09:20:17.438Z,13.7
2018-11-20T09:21:19.243Z,14.1
2018-11-20T09:22:20.346Z,13.9
2018-11-20T09:23:21.539Z,14.1
2018-11-20T09:24:22.752Z,13.9
2018-11-20T09:25:23.949Z,14
2018-11-20T09:26:26.870Z,14
2018-11-20T09:27:28.042Z,13.8
2018-11-20T09:28:29.384Z,13.6
2018-11-20T09:29:30.557Z,13.6
2018-11-20T09:30:31.791Z,13.6
2018-11-20T09:31:37.687Z,13.5
2018-11-20T09:32:39.605Z,13.6
2018-11-20T09:33:40.799Z,13.6
2018-11-20T09:34:42.059Z,13.6
2018-11-20T09:35:53.283Z,13.6
2018-11-20T09:36:54.622Z,13.5
2018-11-20T09:37:55.843Z,13.3
2018-11-20T09:38:57.188Z,13.3
2018-11-20T09:40:01.449Z,13.4
2018-11-20T09:41:04.968Z,13.6
2018-11-20T09:42:06.260Z,13.5
2018-11-20T09:43:07.635Z,13.5
2018-11-20T09:44:08.836Z,13.5
2018-11-20T09:45:10.293Z,13.6
2018-11-20T09:46:11.462Z,13.3
2018-11-20T09:47:12.833Z,13.4
2018-11-20T09:48:14.051Z,13.4
2018-11-20T09:49:15.245Z,13.4
2018-11-20T09:50:16.962Z,13.2
2018-11-20T09:51:18.300Z,13.3
2018-11-20T09:52:20.772Z,13.5
2018-11-20T09:53:22.114Z,13.5
2018-11-20T09:54:23.406Z,13.7
2018-11-20T09:55:24.601Z,13.7
2018-11-20T09:56:25.978Z,13.8
2018-11-20T09:57:27.778Z,13.6
2018-11-20T09:58:29.214Z,13.8
2018-11-20T09:59:30.388Z,13.5
2018-11-20T10:00:31.627Z,13.7
2018-11-20T10:01:32.845Z,13.8
2018-11-20T10:02:38.370Z,13.8
2018-11-20T10:03:39.749Z,13.9
2018-11-20T10:04:42.936Z,13.9
2018-11-20T10:05:46.414Z,13.7
2018-11-20T10:06:47.647Z,13.9
2018-11-20T10:07:48.957Z,13.5
2018-11-20T10:10:05.881Z,13.8
2018-11-20T10:11:07.162Z,13.9
2018-11-20T10:12:08.370Z,13.8
2018-11-20T10:13:16.369Z,13.7
2018-11-20T10:14:17.712Z,13.5
2018-11-20T10:15:21.208Z,13.4
2018-11-20T10:16:32.634Z,13.7
2018-11-20T10:17:33.854Z,13.6
2018-11-20T10:18:35.626Z,13.5
2018-11-20T10:19:36.821Z,13.7
2018-11-20T10:20:38.084Z,13.7
2018-11-20T10:21:39.386Z,13.7
2018-11-20T10:22:40.539Z,13.6
2018-11-20T10:23:42.131Z,13.7
2018-11-20T10:24:43.306Z,13.6
2018-11-20T10:25:47.488Z,14
2018-11-20T10:26:48.850Z,13.8
2018-11-20T10:27:50.168Z,13.6
2018-11-20T10:29:16.214Z,13.6
2018-11-20T10:30:18.978Z,13.5
2018-11-20T10:31:20.176Z,13.5
2018-11-20T10:32:21.606Z,13.5
2018-11-20T10:33:23.093Z,13.6
2018-11-20T10:34:24.409Z,13.6
2018-11-20T10:35:25.594Z,13.7
2018-11-20T10:36:26.761Z,13.6
2018-11-20T10:37:36.614Z,13.8
2018-11-20T10:38:37.828Z,13.7
2018-11-20T10:39:39.105Z,14
2018-11-20T10:40:40.410Z,14.1
2018-11-20T10:41:41.470Z,14.1
2018-11-20T10:42:42.830Z,13.9
2018-11-20T10:43:44.276Z,13.8
2018-11-20T10:44:45.721Z,13.7
2018-11-20T10:45:47.634Z,13.9
2018-11-20T10:46:48.910Z,14.2
2018-11-20T10:47:50.149Z,14.8
2018-11-20T10:48:54.370Z,14.6
2018-11-20T10:49:55.625Z,14.4
2018-11-20T10:50:56.885Z,14.6
2018-11-20T10:51:58.241Z,15.1
2018-11-20T10:52:59.713Z,15.3
2018-11-20T10:54:05.291Z,15.7
2018-11-20T10:55:06.771Z,15.3
2018-11-20T10:56:10.031Z,15.5
2018-11-20T10:57:11.295Z,16
2018-11-20T10:58:12.472Z,15.9
2018-11-20T10:59:13.891Z,15.8
2018-11-20T11:00:20.113Z,15.7
2018-11-20T11:01:21.544Z,15.7
2018-11-20T11:02:23.540Z,15.5
2018-11-20T11:03:24.878Z,15.3
2018-11-20T11:04:26.310Z,15.2
2018-11-20T11:05:27.457Z,15.1
2018-11-20T11:06:29.996Z,15
2018-11-20T11:07:33.549Z,14.8
2018-11-20T11:08:36.699Z,14.7
2018-11-20T11:09:38.166Z,14.5
2018-11-20T11:10:39.412Z,14.6
2018-11-20T11:11:43.745Z,14.6
2018-11-20T11:12:47.425Z,14.8
2018-11-20T11:13:48.672Z,14.8
2018-11-20T11:14:54.621Z,14.6
2018-11-20T11:16:02.960Z,14.6
2018-11-20T11:17:04.149Z,14.5
2018-11-20T11:18:05.366Z,14.8
2018-11-20T11:19:06.560Z,14.5
2018-11-20T11:20:09.136Z,14.4
2018-11-20T11:21:11.560Z,14.4
2018-11-20T11:22:12.638Z,14.3
2018-11-20T11:23:14.971Z,14.2
2018-11-20T11:24:16.330Z,14.1
2018-11-20T11:25:17.625Z,13.8
2018-11-20T11:26:18.912Z,14.1
2018-11-20T11:27:20.078Z,14.2
2018-11-20T11:28:31.646Z,14.4
2018-11-20T11:29:35.332Z,14.4
2018-11-20T11:30:40.602Z,14.1
2018-11-20T11:31:41.885Z,14
2018-11-20T11:32:43.275Z,14.1
2018-11-20T11:33:44.630Z,13.7
2018-11-20T11:34:45.876Z,13.9
2018-11-20T11:35:47.083Z,14.1
2018-11-20T11:36:48.794Z,14.1
2018-11-20T11:37:50.700Z,13.9
2018-11-20T11:38:51.874Z,13.9
2018-11-20T11:39:53.364Z,14.1
2018-11-20T11:40:54.860Z,14
2018-11-20T11:41:56.277Z,13.9
2018-11-20T11:42:58.099Z,14.1
2018-11-20T11:44:00.313Z,14.1
2018-11-20T11:45:02.448Z,14.2
2018-11-20T11:46:04.689Z,14.1
2018-11-20T11:47:06.097Z,14.2
2018-11-20T11:48:11.567Z,14.3
2018-11-20T11:49:13.845Z,14.1
2018-11-20T11:50:18.104Z,13.9
2018-11-20T11:51:25.447Z,13.9
2018-11-20T11:52:40.055Z,14.1
2018-11-20T11:53:54.810Z,13.9
2018-11-20T11:54:59.704Z,14
2018-11-20T11:56:01.308Z,14
2018-11-20T11:57:02.503Z,14.1
2018-11-20T11:58:06.211Z,13.8
2018-11-20T11:59:11.939Z,14
2018-11-20T12:00:13.139Z,14
2018-11-20T12:01:14.305Z,14.1
2018-11-20T12:03:23.706Z,14
2018-11-20T12:04:30.470Z,13.9
2018-11-20T12:05:33.343Z,13.7
2018-11-20T12:06:34.825Z,13.9
2018-11-20T12:07:36.513Z,13.8
2018-11-20T12:08:40.574Z,13.7
2018-11-20T12:09:43.993Z,13.9
2018-11-20T12:10:45.197Z,13.6
2018-11-20T12:11:46.468Z,13.7
2018-11-20T12:12:47.867Z,13.8
2018-11-20T12:14:59.358Z,13.9
2018-11-20T12:17:32.312Z,13.9
2018-11-20T12:18:45.832Z,14
2018-11-20T12:19:49.209Z,13.9
2018-11-20T12:21:01.859Z,14
2018-11-20T12:22:03.499Z,13.9
2018-11-20T12:23:07.090Z,13.8
2018-11-20T12:24:11.489Z,13.5
2018-11-20T12:25:12.819Z,13.7
2018-11-20T12:26:15.312Z,13.8
2018-11-20T12:27:22.303Z,13.8
2018-11-20T12:28:22.475Z,13.7
2018-11-20T12:29:23.937Z,14.1
2018-11-20T12:30:25.671Z,13.9
2018-11-20T12:31:30.980Z,13.8
2018-11-20T12:32:30.218Z,13.8
2018-11-20T12:33:34.397Z,13.8
2018-11-20T12:34:38.922Z,13.8
2018-11-20T12:35:41.679Z,13.9
2018-11-20T12:36:43.399Z,14
2018-11-20T12:37:44.844Z,13.8
2018-11-20T12:38:48.427Z,13.9
2018-11-20T12:39:49.871Z,13.9
2018-11-20T12:40:51.386Z,13.9
2018-11-20T12:41:57.500Z,13.9
2018-11-20T12:43:01.256Z,13.9
2018-11-20T12:44:05.865Z,14
2018-11-20T12:45:03.821Z,14.1
2018-11-20T12:46:05.150Z,14.2
2018-11-20T12:47:09.071Z,14
2018-11-20T12:48:07.750Z,14
2018-11-20T12:49:11.906Z,13.5
2018-11-20T12:50:13.252Z,13.8
2018-11-20T12:51:14.724Z,13.8
2018-11-20T12:52:16.218Z,14.5
2018-11-20T12:53:21.250Z,14.6
2018-11-20T12:54:18.809Z,14.9
2018-11-20T12:55:21.117Z,14.8
2018-11-20T12:57:34.091Z,15
2018-11-20T12:58:34.771Z,15.2
2018-11-20T12:59:36.037Z,15.1
2018-11-20T13:00:37.386Z,14.9
2018-11-20T13:01:40.326Z,14.8
2018-11-20T13:02:41.623Z,14.8
2018-11-20T13:03:43.392Z,14.9
2018-11-20T13:04:44.855Z,14.7
2018-11-20T13:05:46.295Z,14.4
2018-11-20T13:06:47.771Z,14.4
2018-11-20T13:07:49.328Z,14.5
2018-11-20T13:08:56.950Z,14.6
2018-11-20T13:10:01.768Z,14.4
2018-11-20T13:11:12.890Z,14.4
2018-11-20T13:12:17.798Z,14.5
2018-11-20T13:13:24.641Z,14.4
2018-11-20T13:14:28.092Z,14.3
2018-11-20T13:15:29.329Z,14.1
2018-11-20T13:16:33.077Z,14.2
2018-11-20T13:17:35.861Z,14
2018-11-20T13:18:36.032Z,13.9
2018-11-20T13:19:43.736Z,13.8
2018-11-20T13:20:45.299Z,13.9
2018-11-20T13:21:50.930Z,13.8
2018-11-20T13:22:57.240Z,13.9
2018-11-20T13:23:58.875Z,13.9
2018-11-20T13:25:01.730Z,13.9
2018-11-20T13:26:02.800Z,13.9
2018-11-20T13:27:04.227Z,13.9
2018-11-20T13:28:05.522Z,13.9
2018-11-20T13:29:06.935Z,13.9
2018-11-20T13:30:08.193Z,14
2018-11-20T13:31:09.457Z,13.9
2018-11-20T13:32:10.733Z,13.6
2018-11-20T13:33:13.942Z,13.3
2018-11-20T13:34:20.535Z,13.3
2018-11-20T13:35:15.062Z,13.4
2018-11-20T13:36:27.947Z,13.4
2018-11-20T13:37:29.203Z,13.4
2018-11-20T13:38:31.275Z,13.4
2018-11-20T13:39:32.100Z,13.8
2018-11-20T13:40:43.512Z,13.8
2018-11-20T13:41:47.477Z,13.9
2018-11-20T13:42:49.135Z,14
2018-11-20T13:43:51.915Z,14.1
2018-11-20T13:44:54.532Z,14.2
2018-11-20T13:45:58.298Z,14.1
2018-11-20T13:47:04.027Z,13.9
2018-11-20T13:48:04.663Z,13.9
2018-11-20T13:49:06.102Z,13.9
2018-11-20T13:50:07.573Z,13.6
2018-11-20T13:51:09.620Z,13.7
2018-11-20T13:52:11.907Z,13.9
2018-11-20T13:53:12.095Z,13.8
2018-11-20T13:54:13.554Z,13.8
2018-11-20T13:55:14.775Z,13.8
2018-11-20T13:57:21.148Z,13.8
2018-11-20T13:58:22.382Z,14
2018-11-20T13:59:23.624Z,14.1
2018-11-20T14:00:24.807Z,14
2018-11-20T14:01:29.391Z,14
2018-11-20T14:02:30.629Z,13.9
2018-11-20T14:03:31.868Z,13.7
2018-11-20T14:04:33.076Z,13.8
2018-11-20T14:05:34.276Z,13.9
2018-11-20T14:06:35.505Z,14
2018-11-20T14:07:36.872Z,13.8
2018-11-20T14:08:38.074Z,13.9
2018-11-20T14:09:39.390Z,13.9